Time;durP1;ratioP1;P1;durP2;ratioP2;P2;SDS_P1;SDS_P2;PMS_P1;PMS_P2;Temp;Humidity;BMP_temperature;BMP_pressure;BME280_temperature;BME280_humidity;BME280_pressure;Samples;Min_cycle;Max_cycle;Signal;HPM_P1;HPM_P2
2021/12/08 00:05:51;;;;;;;7.0;5.7;;;;;;;4.0;91.5;98980;;;;
2021/12/08 00:10:03;;;;;;;7.0;5.7;;;;;;;3.8;91.6;98990;;;;
2021/12/08 00:13:51;;;;;;;6.6;5.0;;;;;;;4.0;91.9;98990;;;;
2021/12/08 00:15:53;;;;;;;6.6;5.0;;;;;;;3.9;91.9;98980;;;;
2021/12/08 00:21:50;;;;;;;6.6;5.0;;;;;;;4.0;92.1;98970;;;;
2021/12/08 00:23:50;;;;;;;6.6;5.0;;;;;;;4.1;91.9;98960;;;;
2021/12/08 00:29:50;;;;;;;6.6;5.0;;;;;;;4.0;91.9;98950;;;;
2021/12/08 00:31:51;;;;;;;6.6;5.0;;;;;;;4.1;92.0;98960;;;;
2021/12/08 00:35:52;;;;;;;6.3;5.2;;;;;;;4.2;91.8;98980;;;;
2021/12/08 00:41:50;;;;;;;6.3;5.2;;;;;;;4.3;91.9;98980;;;;
2021/12/08 00:43:51;;;;;;;6.3;5.2;;;;;;;4.2;91.9;98980;;;;
2021/12/08 00:45:51;;;;;;;6.3;5.2;;;;;;;4.3;92.1;98980;;;;
2021/12/08 00:51:53;;;;;;;6.3;5.2;;;;;;;4.4;92.0;98960;;;;
2021/12/08 00:55:50;;;;;;;9.0;5.5;;;;;;;4.3;92.2;98960;;;;
2021/12/08 01:01:51;;;;;;;9.0;5.5;;;;;;;4.4;92.7;98980;;;;
2021/12/08 01:03:51;;;;;;;9.0;5.5;;;;;;;4.5;92.5;98980;;;;
2021/12/08 01:05:51;;;;;;;9.0;5.5;;;;;;;4.6;92.3;98980;;;;
2021/12/08 01:07:51;;;;;;;9.0;5.5;;;;;;;4.7;92.1;98990;;;;
2021/12/08 01:09:50;;;;;;;9.0;5.5;;;;;;;4.6;91.9;98990;;;;
2021/12/08 01:11:50;;;;;;;9.0;5.5;;;;;;;4.7;92.0;99000;;;;
2021/12/08 01:17:51;;;;;;;6.9;5.1;;;;;;;4.6;91.6;99000;;;;
2021/12/08 01:19:50;;;;;;;6.9;5.1;;;;;;;4.7;91.8;99000;;;;
2021/12/08 01:21:50;;;;;;;6.9;5.1;;;;;;;4.8;91.8;99000;;;;
2021/12/08 01:27:51;;;;;;;6.9;5.1;;;;;;;4.9;91.8;98990;;;;
2021/12/08 01:29:51;;;;;;;6.9;5.1;;;;;;;4.8;91.6;99000;;;;
2021/12/08 01:31:51;;;;;;;6.9;5.1;;;;;;;5.0;91.8;99000;;;;
2021/12/08 01:35:51;;;;;;;5.7;5.1;;;;;;;4.9;91.7;99010;;;;
2021/12/08 01:39:50;;;;;;;5.7;5.1;;;;;;;5.1;91.9;99010;;;;
2021/12/08 01:41:53;;;;;;;5.7;5.1;;;;;;;5.2;92.0;99010;;;;
2021/12/08 01:46:00;;;;;;;5.7;5.1;;;;;;;5.0;92.0;99010;;;;
2021/12/08 01:47:51;;;;;;;5.7;5.1;;;;;;;5.2;92.2;99020;;;;
2021/12/08 01:55:51;;;;;;;4.0;3.6;;;;;;;5.3;92.3;99030;;;;
2021/12/08 01:57:51;;;;;;;4.0;3.6;;;;;;;5.4;92.1;99030;;;;
2021/12/08 02:01:51;;;;;;;4.0;3.6;;;;;;;5.3;92.2;99020;;;;
2021/12/08 02:03:51;;;;;;;4.0;3.6;;;;;;;5.4;92.6;99020;;;;
2021/12/08 02:07:51;;;;;;;4.0;3.6;;;;;;;5.5;92.4;99020;;;;
2021/12/08 02:09:51;;;;;;;4.0;3.6;;;;;;;5.4;92.3;99020;;;;
2021/12/08 02:11:54;;;;;;;4.0;3.6;;;;;;;5.5;92.2;99030;;;;
2021/12/08 02:21:52;;;;;;;4.1;3.1;;;;;;;5.6;92.2;99050;;;;
2021/12/08 02:27:51;;;;;;;4.1;3.1;;;;;;;5.7;92.2;99050;;;;
2021/12/08 02:49:50;;;;;;;4.3;3.4;;;;;;;5.6;91.1;99070;;;;
2021/12/08 02:53:51;;;;;;;6.1;3.6;;;;;;;5.5;90.9;99080;;;;
2021/12/08 02:57:50;;;;;;;6.1;3.6;;;;;;;5.6;90.8;99080;;;;
2021/12/08 02:59:50;;;;;;;6.1;3.6;;;;;;;5.5;90.6;99080;;;;
2021/12/08 03:01:51;;;;;;;6.1;3.6;;;;;;;5.4;90.7;99080;;;;
2021/12/08 03:11:51;;;;;;;5.7;3.5;;;;;;;5.6;90.8;99080;;;;
2021/12/08 03:13:50;;;;;;;5.7;3.5;;;;;;;5.5;90.6;99080;;;;
2021/12/08 03:21:51;;;;;;;5.7;3.5;;;;;;;5.6;90.6;99080;;;;
2021/12/08 03:28:04;;;;;;;5.7;3.5;;;;;;;5.7;90.6;99080;;;;
2021/12/08 03:31:53;;;;;;;5.4;3.5;;;;;;;5.7;90.3;99100;;;;
2021/12/08 03:33:50;;;;;;;5.4;3.5;;;;;;;5.6;90.2;99100;;;;
2021/12/08 03:39:51;;;;;;;5.4;3.5;;;;;;;5.7;90.3;99110;;;;
2021/12/08 03:41:50;;;;;;;5.4;3.5;;;;;;;5.6;90.3;99110;;;;
2021/12/08 03:43:51;;;;;;;5.4;3.5;;;;;;;5.7;90.5;99100;;;;
2021/12/08 03:45:51;;;;;;;5.4;3.5;;;;;;;5.6;90.2;99100;;;;
2021/12/08 03:51:50;;;;;;;8.3;3.6;;;;;;;5.5;90.0;99100;;;;
2021/12/08 03:53:51;;;;;;;8.3;3.6;;;;;;;5.6;89.8;99100;;;;
2021/12/08 03:59:51;;;;;;;8.3;3.6;;;;;;;5.5;89.0;99120;;;;
2021/12/08 04:03:51;;;;;;;8.3;3.6;;;;;;;5.3;89.1;99120;;;;
2021/12/08 04:05:55;;;;;;;8.3;3.6;;;;;;;5.4;89.1;99120;;;;
2021/12/08 04:09:51;;;;;;;8.3;3.6;;;;;;;5.3;88.9;99120;;;;
2021/12/08 04:11:51;;;;;;;8.7;3.8;;;;;;;5.2;89.0;99120;;;;
2021/12/08 04:19:51;;;;;;;8.7;3.8;;;;;;;5.1;88.7;99120;;;;
2021/12/08 04:27:51;;;;;;;8.7;3.8;;;;;;;5.0;88.3;99130;;;;
2021/12/08 04:29:51;;;;;;;8.7;3.8;;;;;;;4.9;88.4;99140;;;;
2021/12/08 04:31:51;;;;;;;6.9;3.2;;;;;;;5.0;88.5;99140;;;;
2021/12/08 04:33:53;;;;;;;6.9;3.2;;;;;;;4.9;88.6;99140;;;;
2021/12/08 04:41:57;;;;;;;6.9;3.2;;;;;;;4.8;88.4;99140;;;;
2021/12/08 04:46:09;;;;;;;6.9;3.2;;;;;;;4.7;88.5;99140;;;;
2021/12/08 04:48:11;;;;;;;6.9;3.2;;;;;;;4.8;88.4;99140;;;;
2021/12/08 05:09:50;;;;;;;9.2;4.1;;;;;;;4.6;88.5;99150;;;;
2021/12/08 05:15:52;;;;;;;5.2;3.4;;;;;;;4.5;88.0;99170;;;;
2021/12/08 05:23:51;;;;;;;5.2;3.4;;;;;;;4.4;87.8;99180;;;;
2021/12/08 05:27:51;;;;;;;5.2;3.4;;;;;;;4.5;88.0;99170;;;;
2021/12/08 05:31:51;;;;;;;9.7;3.8;;;;;;;4.4;87.3;99180;;;;
2021/12/08 05:41:51;;;;;;;9.7;3.8;;;;;;;4.6;87.6;99180;;;;
2021/12/08 05:43:51;;;;;;;9.7;3.8;;;;;;;4.5;87.3;99200;;;;
2021/12/08 05:47:51;;;;;;;9.7;3.8;;;;;;;4.6;87.1;99190;;;;
2021/12/08 05:53:51;;;;;;;7.5;3.6;;;;;;;4.5;87.2;99200;;;;
2021/12/08 05:55:51;;;;;;;7.5;3.6;;;;;;;4.6;86.9;99210;;;;
2021/12/08 05:59:51;;;;;;;7.5;3.6;;;;;;;4.5;86.9;99210;;;;
2021/12/08 06:07:51;;;;;;;7.5;3.6;;;;;;;4.6;87.0;99210;;;;
2021/12/08 06:09:51;;;;;;;7.5;3.6;;;;;;;4.5;87.0;99210;;;;
2021/12/08 06:11:51;;;;;;;9.4;3.8;;;;;;;4.6;86.9;99210;;;;
2021/12/08 06:17:51;;;;;;;9.4;3.8;;;;;;;4.5;86.9;99230;;;;
2021/12/08 06:25:51;;;;;;;9.4;3.8;;;;;;;4.6;87.0;99230;;;;
2021/12/08 06:29:51;;;;;;;9.4;3.8;;;;;;;4.5;86.7;99240;;;;
2021/12/08 06:39:51;;;;;;;8.7;3.4;;;;;;;4.4;86.9;99260;;;;
2021/12/08 06:41:52;;;;;;;8.7;3.4;;;;;;;4.5;86.7;99260;;;;
2021/12/08 06:49:51;;;;;;;8.7;3.4;;;;;;;4.4;86.7;99260;;;;
2021/12/08 06:51:51;;;;;;;7.9;4.0;;;;;;;4.5;86.6;99250;;;;
2021/12/08 07:09:51;;;;;;;7.9;4.0;;;;;;;4.5;86.0;99260;;;;
2021/12/08 07:11:51;;;;;;;9.3;3.9;;;;;;;4.4;85.9;99240;;;;
2021/12/08 07:14:00;;;;;;;9.3;3.9;;;;;;;4.3;85.7;99250;;;;
2021/12/08 07:15:51;;;;;;;9.3;3.9;;;;;;;4.2;85.8;99250;;;;
2021/12/08 07:23:51;;;;;;;9.3;3.9;;;;;;;4.1;86.1;99290;;;;
2021/12/08 07:25:51;;;;;;;9.3;3.9;;;;;;;4.0;86.0;99300;;;;
2021/12/08 07:27:51;;;;;;;9.3;3.9;;;;;;;4.1;86.0;99300;;;;
2021/12/08 07:31:53;;;;;;;9.9;4.0;;;;;;;4.0;85.9;99290;;;;
2021/12/08 07:47:51;;;;;;;9.9;4.0;;;;;;;3.8;85.9;99320;;;;
2021/12/08 07:49:55;;;;;;;9.9;4.0;;;;;;;3.9;86.1;99330;;;;
2021/12/08 07:51:51;;;;;;;7.5;4.0;;;;;;;3.8;86.1;99330;;;;
2021/12/08 07:53:51;;;;;;;7.5;4.0;;;;;;;3.9;86.0;99330;;;;
2021/12/08 07:55:51;;;;;;;7.5;4.0;;;;;;;3.8;86.2;99330;;;;
2021/12/08 07:59:51;;;;;;;7.5;4.0;;;;;;;3.9;86.2;99330;;;;
2021/12/08 08:03:51;;;;;;;7.5;4.0;;;;;;;4.0;86.2;99330;;;;
2021/12/08 08:05:51;;;;;;;7.5;4.0;;;;;;;4.1;85.9;99320;;;;
2021/12/08 08:15:51;;;;;;;12.7;4.1;;;;;;;4.0;85.9;99340;;;;
2021/12/08 08:19:51;;;;;;;12.7;4.1;;;;;;;4.1;85.6;99340;;;;
2021/12/08 08:23:51;;;;;;;12.7;4.1;;;;;;;4.0;85.8;99350;;;;
2021/12/08 08:25:51;;;;;;;12.7;4.1;;;;;;;4.1;85.6;99350;;;;
2021/12/08 08:27:51;;;;;;;12.7;4.1;;;;;;;4.2;85.8;99350;;;;
2021/12/08 08:35:51;;;;;;;10.2;4.0;;;;;;;4.3;84.9;99360;;;;
2021/12/08 08:55:51;;;;;;;6.0;3.8;;;;;;;4.4;84.9;99340;;;;
2021/12/08 08:57:51;;;;;;;6.0;3.8;;;;;;;4.5;84.1;99340;;;;
2021/12/08 09:01:51;;;;;;;6.0;3.8;;;;;;;4.4;84.1;99330;;;;
2021/12/08 09:05:52;;;;;;;6.0;3.8;;;;;;;4.3;84.3;99330;;;;
2021/12/08 09:07:51;;;;;;;6.0;3.8;;;;;;;4.4;83.6;99340;;;;
2021/12/08 09:11:51;;;;;;;6.2;3.7;;;;;;;4.3;83.7;99340;;;;
2021/12/08 09:19:51;;;;;;;6.2;3.7;;;;;;;4.4;83.3;99350;;;;
2021/12/08 09:22:01;;;;;;;6.2;3.7;;;;;;;4.3;83.6;99350;;;;
2021/12/08 09:25:51;;;;;;;6.2;3.7;;;;;;;4.4;83.6;99360;;;;
2021/12/08 09:33:53;;;;;;;7.1;3.8;;;;;;;4.5;83.7;99380;;;;
2021/12/08 09:35:51;;;;;;;7.1;3.8;;;;;;;4.4;83.3;99380;;;;
2021/12/08 09:43:51;;;;;;;7.1;3.8;;;;;;;4.5;83.2;99390;;;;
2021/12/08 09:47:51;;;;;;;7.1;3.8;;;;;;;4.6;83.2;99380;;;;
2021/12/08 09:51:51;;;;;;;7.7;3.4;;;;;;;4.7;83.1;99390;;;;
2021/12/08 09:53:51;;;;;;;7.7;3.4;;;;;;;4.8;82.2;99380;;;;
2021/12/08 09:55:51;;;;;;;7.7;3.4;;;;;;;4.9;82.6;99380;;;;
2021/12/08 10:01:52;;;;;;;7.7;3.4;;;;;;;5.0;83.2;99370;;;;
2021/12/08 10:05:51;;;;;;;7.7;3.4;;;;;;;5.1;82.6;99350;;;;
2021/12/08 10:07:51;;;;;;;7.7;3.4;;;;;;;5.0;82.9;99340;;;;
2021/12/08 10:09:51;;;;;;;7.7;3.4;;;;;;;5.1;82.9;99340;;;;
2021/12/08 10:15:51;;;;;;;4.9;3.3;;;;;;;5.2;82.5;99350;;;;
2021/12/08 10:17:51;;;;;;;4.9;3.3;;;;;;;5.1;82.1;99350;;;;
2021/12/08 10:19:51;;;;;;;4.9;3.3;;;;;;;5.2;81.8;99340;;;;
2021/12/08 10:21:51;;;;;;;4.9;3.3;;;;;;;5.1;82.3;99340;;;;
2021/12/08 10:23:51;;;;;;;4.9;3.3;;;;;;;5.2;81.6;99330;;;;
2021/12/08 10:31:53;;;;;;;7.5;3.5;;;;;;;5.3;81.0;99320;;;;
2021/12/08 10:33:56;;;;;;;7.5;3.5;;;;;;;5.4;81.5;99320;;;;
2021/12/08 10:37:51;;;;;;;7.5;3.5;;;;;;;5.3;81.6;99320;;;;
2021/12/08 10:39:52;;;;;;;7.5;3.5;;;;;;;5.5;81.4;99320;;;;
2021/12/08 10:43:51;;;;;;;7.5;3.5;;;;;;;5.6;80.3;99330;;;;
2021/12/08 10:45:51;;;;;;;7.5;3.5;;;;;;;5.5;81.0;99320;;;;
2021/12/08 10:47:53;;;;;;;7.5;3.5;;;;;;;5.7;80.7;99320;;;;
2021/12/08 10:57:53;;;;;;;5.7;3.0;;;;;;;5.5;80.4;99330;;;;
2021/12/08 11:03:51;;;;;;;5.7;3.0;;;;;;;5.4;80.4;99340;;;;
2021/12/08 11:07:51;;;;;;;5.7;3.0;;;;;;;5.5;80.4;99350;;;;
2021/12/08 11:11:52;;;;;;;5.8;3.2;;;;;;;5.4;80.8;99350;;;;
2021/12/08 11:17:51;;;;;;;5.8;3.2;;;;;;;5.6;80.7;99350;;;;
2021/12/08 11:19:51;;;;;;;5.8;3.2;;;;;;;5.5;80.3;99360;;;;
2021/12/08 11:23:52;;;;;;;5.8;3.2;;;;;;;5.4;80.5;99380;;;;
2021/12/08 11:29:51;;;;;;;5.8;3.5;;;;;;;5.6;80.1;99390;;;;
2021/12/08 11:34:00;;;;;;;5.8;3.5;;;;;;;5.7;80.6;99410;;;;
2021/12/08 11:37:51;;;;;;;5.8;3.5;;;;;;;5.9;80.5;99410;;;;
2021/12/08 11:39:52;;;;;;;5.8;3.5;;;;;;;5.8;79.6;99400;;;;
2021/12/08 11:41:51;;;;;;;5.8;3.5;;;;;;;5.9;80.1;99410;;;;
2021/12/08 11:45:51;;;;;;;5.8;3.5;;;;;;;6.0;80.1;99420;;;;
2021/12/08 11:47:51;;;;;;;5.8;3.5;;;;;;;5.9;79.9;99410;;;;
2021/12/08 11:49:51;;;;;;;5.7;3.3;;;;;;;6.0;79.9;99410;;;;
2021/12/08 11:55:51;;;;;;;5.7;3.3;;;;;;;5.9;79.8;99420;;;;
2021/12/08 11:57:51;;;;;;;5.7;3.3;;;;;;;6.0;79.5;99420;;;;
2021/12/08 12:05:51;;;;;;;5.7;3.3;;;;;;;6.1;80.7;99430;;;;
2021/12/08 12:07:51;;;;;;;5.7;3.3;;;;;;;6.0;79.3;99440;;;;
2021/12/08 12:11:53;;;;;;;4.6;3.0;;;;;;;6.1;79.4;99450;;;;
2021/12/08 12:13:51;;;;;;;4.6;3.0;;;;;;;6.0;79.3;99450;;;;
2021/12/08 12:21:51;;;;;;;4.6;3.0;;;;;;;5.9;79.3;99460;;;;
2021/12/08 12:25:51;;;;;;;4.6;3.0;;;;;;;6.0;80.9;99470;;;;
2021/12/08 12:27:51;;;;;;;4.6;3.0;;;;;;;5.9;79.5;99460;;;;
2021/12/08 12:29:51;;;;;;;9.7;3.3;;;;;;;6.0;79.7;99470;;;;
2021/12/08 12:33:51;;;;;;;9.7;3.3;;;;;;;5.9;78.6;99470;;;;
2021/12/08 12:35:51;;;;;;;9.7;3.3;;;;;;;5.8;78.7;99470;;;;
2021/12/08 12:39:51;;;;;;;9.7;3.3;;;;;;;5.9;79.0;99480;;;;
2021/12/08 12:41:51;;;;;;;9.7;3.3;;;;;;;5.8;78.4;99480;;;;
2021/12/08 12:45:51;;;;;;;9.7;3.3;;;;;;;5.9;79.4;99490;;;;
2021/12/08 12:47:51;;;;;;;9.7;3.3;;;;;;;5.8;78.7;99490;;;;
2021/12/08 12:49:51;;;;;;;4.0;3.0;;;;;;;5.9;79.4;99490;;;;
2021/12/08 12:51:51;;;;;;;4.0;3.0;;;;;;;6.0;79.8;99490;;;;
2021/12/08 12:53:53;;;;;;;4.0;3.0;;;;;;;5.9;79.1;99490;;;;
2021/12/08 12:55:51;;;;;;;4.0;3.0;;;;;;;6.0;78.9;99480;;;;
2021/12/08 12:59:52;;;;;;;4.0;3.0;;;;;;;5.9;79.1;99470;;;;
2021/12/08 13:09:55;;;;;;;7.4;3.3;;;;;;;6.1;79.8;99490;;;;
2021/12/08 13:11:58;;;;;;;7.4;3.3;;;;;;;6.0;79.7;99480;;;;
2021/12/08 13:13:52;;;;;;;7.4;3.3;;;;;;;6.1;79.6;99480;;;;
2021/12/08 13:17:51;;;;;;;7.4;3.3;;;;;;;6.0;78.4;99490;;;;
2021/12/08 13:19:51;;;;;;;7.4;3.3;;;;;;;5.9;78.5;99490;;;;
2021/12/08 13:21:53;;;;;;;7.4;3.3;;;;;;;6.0;78.7;99490;;;;
2021/12/08 13:29:51;;;;;;;5.8;3.4;;;;;;;5.9;78.2;99510;;;;
2021/12/08 13:33:51;;;;;;;5.8;3.4;;;;;;;6.0;78.9;99510;;;;
2021/12/08 13:35:51;;;;;;;5.8;3.4;;;;;;;5.9;78.3;99510;;;;
2021/12/08 13:40:00;;;;;;;5.8;3.4;;;;;;;6.0;79.1;99520;;;;
2021/12/08 13:41:51;;;;;;;5.8;3.4;;;;;;;5.9;79.1;99520;;;;
2021/12/08 13:43:51;;;;;;;5.8;3.4;;;;;;;5.8;78.6;99520;;;;
2021/12/08 13:45:51;;;;;;;5.8;3.4;;;;;;;5.9;79.5;99520;;;;
2021/12/08 13:51:51;;;;;;;8.3;3.6;;;;;;;6.0;79.2;99530;;;;
2021/12/08 13:59:51;;;;;;;8.3;3.6;;;;;;;5.9;78.8;99530;;;;
2021/12/08 14:07:51;;;;;;;8.3;3.6;;;;;;;5.8;79.0;99520;;;;
2021/12/08 14:11:51;;;;;;;6.2;3.5;;;;;;;5.9;79.5;99540;;;;
2021/12/08 14:13:51;;;;;;;6.2;3.5;;;;;;;5.8;78.7;99540;;;;
2021/12/08 14:27:51;;;;;;;6.2;3.5;;;;;;;5.9;78.5;99560;;;;
2021/12/08 14:29:51;;;;;;;6.2;3.5;;;;;;;5.8;78.2;99560;;;;
2021/12/08 14:43:53;;;;;;;6.2;3.5;;;;;;;5.9;78.1;99540;;;;
2021/12/08 14:45:51;;;;;;;6.2;3.5;;;;;;;5.7;77.7;99550;;;;
2021/12/08 14:47:52;;;;;;;6.2;3.5;;;;;;;5.6;78.0;99550;;;;
2021/12/08 14:49:51;;;;;;;5.0;2.6;;;;;;;5.7;77.9;99550;;;;
2021/12/08 14:53:51;;;;;;;5.0;2.6;;;;;;;5.5;77.5;99570;;;;
2021/12/08 14:55:51;;;;;;;5.0;2.6;;;;;;;5.4;77.8;99570;;;;
2021/12/08 15:05:52;;;;;;;5.0;2.6;;;;;;;5.3;77.7;99580;;;;
2021/12/08 15:09:51;;;;;;;5.6;3.3;;;;;;;5.2;78.2;99590;;;;
2021/12/08 15:21:53;;;;;;;5.6;3.3;;;;;;;5.1;78.1;99610;;;;
2021/12/08 15:25:51;;;;;;;5.6;3.3;;;;;;;5.2;78.4;99610;;;;
2021/12/08 15:27:51;;;;;;;5.6;3.3;;;;;;;5.1;78.1;99600;;;;
2021/12/08 15:35:51;;;;;;;5.3;3.5;;;;;;;5.0;78.5;99610;;;;
2021/12/08 15:39:53;;;;;;;5.3;3.5;;;;;;;5.1;78.4;99610;;;;
2021/12/08 15:41:51;;;;;;;5.3;3.5;;;;;;;5.0;77.7;99600;;;;
2021/12/08 15:43:51;;;;;;;5.3;3.5;;;;;;;4.9;78.3;99600;;;;
2021/12/08 15:51:52;;;;;;;10.4;4.1;;;;;;;4.8;78.7;99600;;;;
2021/12/08 15:55:51;;;;;;;10.4;4.1;;;;;;;4.7;79.0;99610;;;;
2021/12/08 16:05:51;;;;;;;10.4;4.1;;;;;;;4.6;79.6;99630;;;;
2021/12/08 16:11:51;;;;;;;4.8;3.3;;;;;;;4.5;80.2;99620;;;;
2021/12/08 16:13:51;;;;;;;4.8;3.3;;;;;;;4.6;80.0;99630;;;;
2021/12/08 16:15:51;;;;;;;4.8;3.3;;;;;;;4.4;80.0;99630;;;;
2021/12/08 16:17:51;;;;;;;4.8;3.3;;;;;;;4.5;80.3;99630;;;;
2021/12/08 16:23:51;;;;;;;4.8;3.3;;;;;;;4.4;79.6;99630;;;;
2021/12/08 16:25:51;;;;;;;4.8;3.3;;;;;;;4.3;80.1;99640;;;;
2021/12/08 16:29:51;;;;;;;5.8;3.8;;;;;;;4.4;79.6;99640;;;;
2021/12/08 16:31:51;;;;;;;5.8;3.8;;;;;;;4.3;80.0;99660;;;;
2021/12/08 16:35:52;;;;;;;5.8;3.8;;;;;;;4.4;80.3;99660;;;;
2021/12/08 16:37:51;;;;;;;5.8;3.8;;;;;;;4.3;80.1;99670;;;;
2021/12/08 16:43:52;;;;;;;5.8;3.8;;;;;;;4.2;80.8;99670;;;;
2021/12/08 16:51:51;;;;;;;7.8;4.4;;;;;;;4.1;80.7;99670;;;;
2021/12/08 16:53:53;;;;;;;7.8;4.4;;;;;;;4.2;80.5;99670;;;;
2021/12/08 16:55:51;;;;;;;7.8;4.4;;;;;;;4.1;80.7;99670;;;;
2021/12/08 16:59:51;;;;;;;7.8;4.4;;;;;;;4.0;80.6;99680;;;;
2021/12/08 17:03:51;;;;;;;7.8;4.4;;;;;;;3.9;81.2;99680;;;;
2021/12/08 17:09:51;;;;;;;6.3;3.8;;;;;;;3.8;80.5;99680;;;;
2021/12/08 17:11:51;;;;;;;6.3;3.8;;;;;;;3.9;80.5;99690;;;;
2021/12/08 17:17:51;;;;;;;6.3;3.8;;;;;;;3.7;80.7;99690;;;;
2021/12/08 17:19:53;;;;;;;6.3;3.8;;;;;;;3.8;81.0;99690;;;;
2021/12/08 17:21:51;;;;;;;6.3;3.8;;;;;;;3.6;80.9;99690;;;;
2021/12/08 17:25:52;;;;;;;6.3;3.8;;;;;;;3.7;80.8;99690;;;;
2021/12/08 17:27:51;;;;;;;6.3;3.8;;;;;;;3.6;81.0;99700;;;;
2021/12/08 17:29:51;;;;;;;7.5;4.9;;;;;;;3.7;80.9;99700;;;;
2021/12/08 17:31:51;;;;;;;7.5;4.9;;;;;;;3.6;81.3;99700;;;;
2021/12/08 17:33:51;;;;;;;7.5;4.9;;;;;;;3.7;81.3;99700;;;;
2021/12/08 17:37:58;;;;;;;7.5;4.9;;;;;;;3.6;81.1;99700;;;;
2021/12/08 17:41:51;;;;;;;7.5;4.9;;;;;;;3.5;81.2;99700;;;;
2021/12/08 17:45:51;;;;;;;7.5;4.9;;;;;;;3.6;81.0;99700;;;;
2021/12/08 17:47:51;;;;;;;7.5;4.9;;;;;;;3.5;81.4;99700;;;;
2021/12/08 17:53:51;;;;;;;6.9;4.7;;;;;;;3.4;81.3;99700;;;;
2021/12/08 17:57:51;;;;;;;6.9;4.7;;;;;;;3.5;81.5;99700;;;;
2021/12/08 18:01:51;;;;;;;6.9;4.7;;;;;;;3.4;81.3;99700;;;;
2021/12/08 18:03:51;;;;;;;6.9;4.7;;;;;;;3.5;81.0;99700;;;;
2021/12/08 18:05:51;;;;;;;6.9;4.7;;;;;;;3.4;80.9;99700;;;;
2021/12/08 18:07:51;;;;;;;6.9;4.7;;;;;;;3.3;81.6;99700;;;;
2021/12/08 18:11:52;;;;;;;7.4;5.1;;;;;;;3.4;81.1;99710;;;;
2021/12/08 18:17:51;;;;;;;7.4;5.1;;;;;;;3.3;81.2;99710;;;;
2021/12/08 18:19:51;;;;;;;7.4;5.1;;;;;;;3.2;81.4;99720;;;;
2021/12/08 18:33:52;;;;;;;7.1;4.9;;;;;;;3.1;81.5;99740;;;;
2021/12/08 18:41:51;;;;;;;7.1;4.9;;;;;;;3.0;81.5;99750;;;;
2021/12/08 18:43:51;;;;;;;7.1;4.9;;;;;;;3.2;81.5;99750;;;;
2021/12/08 18:45:51;;;;;;;7.1;4.9;;;;;;;3.0;81.6;99750;;;;
2021/12/08 18:49:51;;;;;;;6.7;4.9;;;;;;;3.1;81.7;99750;;;;
2021/12/08 18:53:51;;;;;;;6.7;4.9;;;;;;;3.0;81.9;99750;;;;
2021/12/08 18:57:51;;;;;;;6.7;4.9;;;;;;;2.9;82.0;99760;;;;
2021/12/08 18:59:53;;;;;;;6.7;4.9;;;;;;;3.0;81.9;99760;;;;
2021/12/08 19:01:51;;;;;;;6.7;4.9;;;;;;;2.9;82.0;99760;;;;
2021/12/08 19:03:51;;;;;;;6.7;4.9;;;;;;;3.0;82.0;99760;;;;
2021/12/08 19:05:51;;;;;;;6.7;4.9;;;;;;;2.9;82.0;99760;;;;
2021/12/08 19:09:51;;;;;;;9.1;5.7;;;;;;;2.8;82.2;99770;;;;
2021/12/08 19:11:51;;;;;;;9.1;5.7;;;;;;;2.9;82.2;99770;;;;
2021/12/08 19:13:51;;;;;;;9.1;5.7;;;;;;;2.8;82.0;99780;;;;
2021/12/08 19:17:51;;;;;;;9.1;5.7;;;;;;;2.9;82.3;99780;;;;
2021/12/08 19:21:51;;;;;;;9.1;5.7;;;;;;;2.8;82.1;99780;;;;
2021/12/08 19:27:51;;;;;;;7.1;5.2;;;;;;;2.9;82.2;99790;;;;
2021/12/08 19:29:51;;;;;;;7.1;5.2;;;;;;;2.8;82.3;99790;;;;
2021/12/08 19:31:51;;;;;;;7.1;5.2;;;;;;;2.7;82.4;99790;;;;
2021/12/08 19:37:51;;;;;;;7.1;5.2;;;;;;;2.6;82.5;99800;;;;
2021/12/08 19:39:51;;;;;;;7.1;5.2;;;;;;;2.7;82.5;99800;;;;
2021/12/08 19:53:51;;;;;;;8.5;6.9;;;;;;;2.6;82.6;99810;;;;
2021/12/08 19:59:51;;;;;;;8.5;6.9;;;;;;;2.5;83.0;99830;;;;
2021/12/08 20:01:51;;;;;;;8.5;6.9;;;;;;;2.7;83.0;99820;;;;
2021/12/08 20:03:53;;;;;;;8.5;6.9;;;;;;;2.6;82.8;99820;;;;
2021/12/08 20:05:51;;;;;;;8.5;6.9;;;;;;;2.7;83.0;99820;;;;
2021/12/08 20:07:51;;;;;;;9.8;6.7;;;;;;;2.6;82.9;99820;;;;
2021/12/08 20:13:51;;;;;;;9.8;6.7;;;;;;;2.5;83.2;99830;;;;
2021/12/08 20:21:53;;;;;;;9.8;6.7;;;;;;;2.6;83.4;99840;;;;
2021/12/08 20:25:51;;;;;;;9.8;6.7;;;;;;;2.5;83.4;99840;;;;
2021/12/08 20:27:51;;;;;;;10.5;7.5;;;;;;;2.6;83.7;99840;;;;
2021/12/08 20:29:51;;;;;;;10.5;7.5;;;;;;;2.5;83.5;99840;;;;
2021/12/08 20:31:51;;;;;;;10.5;7.5;;;;;;;2.6;83.3;99840;;;;
2021/12/08 20:33:51;;;;;;;10.5;7.5;;;;;;;2.5;83.3;99840;;;;
